createdAt,value
2023-09-29T00:00:17.766Z,13.90
2023-09-29T00:03:08.076Z,13.90
2023-09-29T00:05:36.484Z,13.80
2023-09-29T00:08:04.215Z,13.80
2023-09-29T00:10:32.316Z,13.80
2023-09-29T00:12:59.945Z,13.80
2023-09-29T00:15:27.690Z,13.70
2023-09-29T00:17:55.330Z,13.70
2023-09-29T00:20:23.177Z,13.70
2023-09-29T00:22:54.644Z,13.80
2023-09-29T00:25:22.977Z,13.70
2023-09-29T00:27:51.534Z,13.70
2023-09-29T00:30:19.992Z,13.80
2023-09-29T00:32:52.356Z,13.80
2023-09-29T00:35:29.262Z,13.80
2023-09-29T00:37:59.136Z,13.80
2023-09-29T00:40:27.805Z,13.80
2023-09-29T00:42:55.930Z,13.80
2023-09-29T00:45:27.722Z,13.80
2023-09-29T00:47:59.074Z,13.80
2023-09-29T00:50:31.124Z,13.80
2023-09-29T00:53:01.152Z,13.70
2023-09-29T00:55:31.447Z,13.70
2023-09-29T00:58:00.331Z,13.70
2023-09-29T01:00:30.586Z,13.70
2023-09-29T01:03:10.525Z,13.70
2023-09-29T01:05:43.632Z,13.60
2023-09-29T01:08:14.129Z,13.60
2023-09-29T01:10:43.036Z,13.60
2023-09-29T01:13:11.153Z,13.60
2023-09-29T01:15:40.316Z,13.60
2023-09-29T01:18:08.628Z,13.50
2023-09-29T01:20:39.207Z,13.50
2023-09-29T01:23:09.161Z,13.50
2023-09-29T01:25:37.871Z,13.50
2023-09-29T01:28:08.567Z,13.40
2023-09-29T01:30:37.888Z,13.40
2023-09-29T01:33:06.047Z,13.40
2023-09-29T01:35:34.468Z,13.40
2023-09-29T01:38:02.560Z,13.40
2023-09-29T01:40:31.147Z,13.50
2023-09-29T01:42:59.184Z,13.40
2023-09-29T01:45:28.475Z,13.40
2023-09-29T01:47:56.807Z,13.40
2023-09-29T01:50:25.128Z,13.40
2023-09-29T01:52:53.070Z,13.50
2023-09-29T01:55:22.457Z,13.50
2023-09-29T01:57:51.952Z,13.50
2023-09-29T02:00:26.032Z,13.40
2023-09-29T02:02:55.541Z,13.40
2023-09-29T02:05:25.047Z,13.40
2023-09-29T02:07:53.999Z,13.40
2023-09-29T02:10:23.691Z,13.40
2023-09-29T02:12:56.600Z,13.40
2023-09-29T02:15:26.742Z,13.40
2023-09-29T02:17:55.242Z,13.30
2023-09-29T02:20:27.246Z,13.30
2023-09-29T02:22:56.386Z,13.30
2023-09-29T02:25:27.580Z,13.30
2023-09-29T02:27:58.614Z,13.20
2023-09-29T02:30:27.661Z,13.20
2023-09-29T02:32:55.468Z,13.20
2023-09-29T02:35:24.522Z,13.20
2023-09-29T02:37:53.891Z,13.20
2023-09-29T02:40:23.476Z,13.10
2023-09-29T02:42:51.885Z,13.10
2023-09-29T02:45:20.485Z,13.00
2023-09-29T02:47:49.214Z,13.00
2023-09-29T02:50:18.134Z,13.00
2023-09-29T02:52:45.892Z,13.00
2023-09-29T02:55:17.972Z,13.00
2023-09-29T02:57:47.284Z,12.90
2023-09-29T03:00:24.852Z,12.90
2023-09-29T03:02:55.286Z,12.90
2023-09-29T03:05:23.783Z,12.90
2023-09-29T03:07:55.137Z,12.80
2023-09-29T03:10:27.685Z,12.80
2023-09-29T03:12:58.372Z,12.80
2023-09-29T03:15:27.304Z,12.80
2023-09-29T03:17:58.917Z,12.70
2023-09-29T03:20:28.519Z,12.80
2023-09-29T03:22:58.786Z,12.80
2023-09-29T03:25:26.569Z,12.80
2023-09-29T03:27:55.236Z,12.80
2023-09-29T03:30:23.219Z,12.70
2023-09-29T03:32:50.725Z,12.70
2023-09-29T03:35:18.793Z,12.70
2023-09-29T03:37:46.683Z,12.70
2023-09-29T03:40:19.620Z,12.80
2023-09-29T03:42:48.109Z,12.70
2023-09-29T03:45:16.130Z,12.80
2023-09-29T03:47:43.849Z,12.80
2023-09-29T03:50:13.622Z,12.80
2023-09-29T03:52:44.118Z,12.80
2023-09-29T03:55:14.004Z,12.80
2023-09-29T03:57:49.562Z,12.80
2023-09-29T04:00:19.609Z,12.80
2023-09-29T04:02:51.270Z,12.80
2023-09-29T04:05:19.728Z,12.80
2023-09-29T04:07:47.485Z,12.80
2023-09-29T04:10:19.090Z,12.70
2023-09-29T04:12:47.719Z,12.70
2023-09-29T04:15:17.535Z,12.80
2023-09-29T04:17:45.579Z,12.80
2023-09-29T04:20:14.293Z,12.70
2023-09-29T04:22:41.805Z,12.70
2023-09-29T04:25:11.460Z,12.70
2023-09-29T04:27:40.947Z,12.70
2023-09-29T04:30:10.567Z,12.70
2023-09-29T04:32:38.515Z,12.70
2023-09-29T04:35:06.987Z,12.70
2023-09-29T04:37:34.411Z,12.70
2023-09-29T04:40:02.199Z,12.70
2023-09-29T04:42:29.750Z,12.70
2023-09-29T04:44:57.480Z,12.70
2023-09-29T04:47:25.558Z,12.70
2023-09-29T04:49:53.690Z,12.70
2023-09-29T04:52:21.179Z,12.70
2023-09-29T04:54:49.479Z,12.70
2023-09-29T04:57:17.055Z,12.70
2023-09-29T04:59:44.901Z,12.70
2023-09-29T05:02:12.823Z,12.80
2023-09-29T05:04:40.929Z,12.80
2023-09-29T05:07:08.863Z,12.90
2023-09-29T05:09:36.845Z,12.90
2023-09-29T05:12:06.045Z,13.00
2023-09-29T05:14:34.294Z,13.00
2023-09-29T05:17:01.770Z,13.10
2023-09-29T05:19:29.482Z,13.10
2023-09-29T05:21:56.886Z,13.20
2023-09-29T05:24:24.859Z,13.30
2023-09-29T05:26:52.278Z,13.30
2023-09-29T05:29:19.909Z,13.30
2023-09-29T05:31:47.418Z,13.40
2023-09-29T05:34:15.229Z,13.50
2023-09-29T05:36:42.598Z,13.60
2023-09-29T05:39:11.294Z,13.60
2023-09-29T05:41:38.699Z,13.70
2023-09-29T05:44:06.902Z,13.80
2023-09-29T05:46:34.298Z,13.90
2023-09-29T05:49:02.281Z,13.90
2023-09-29T05:51:29.869Z,14.00
2023-09-29T05:53:59.757Z,14.20
2023-09-29T05:56:27.741Z,14.20
2023-09-29T05:58:56.537Z,14.30
2023-09-29T06:01:26.735Z,14.40
2023-09-29T06:03:54.832Z,14.50
2023-09-29T06:06:23.251Z,14.50
2023-09-29T06:08:55.262Z,14.60
2023-09-29T06:11:24.030Z,14.70
2023-09-29T06:13:52.052Z,14.80
2023-09-29T06:16:20.133Z,14.90
2023-09-29T06:18:48.175Z,14.90
2023-09-29T06:21:17.552Z,15.00
2023-09-29T06:23:45.540Z,15.10
2023-09-29T06:26:13.095Z,15.20
2023-09-29T06:28:40.841Z,15.30
2023-09-29T06:31:09.757Z,15.40
2023-09-29T06:33:37.649Z,15.50
2023-09-29T06:36:06.076Z,15.60
2023-09-29T06:38:33.990Z,15.70
2023-09-29T06:41:01.333Z,15.90
2023-09-29T06:43:29.013Z,16.10
2023-09-29T06:48:27.083Z,16.40
2023-09-29T06:51:00.335Z,16.50
2023-09-29T06:53:30.122Z,16.60
2023-09-29T06:55:59.498Z,16.60
2023-09-29T06:58:28.058Z,16.70
2023-09-29T07:00:57.387Z,16.80
2023-09-29T07:03:31.493Z,16.90
2023-09-29T07:06:01.249Z,17.00
2023-09-29T07:08:29.843Z,17.10
2023-09-29T07:10:57.587Z,17.30
2023-09-29T07:13:25.686Z,17.40
2023-09-29T07:15:53.035Z,17.50
2023-09-29T07:18:22.904Z,17.60
2023-09-29T07:20:53.753Z,17.70
2023-09-29T07:23:23.412Z,17.80
2023-09-29T07:25:54.340Z,17.90
2023-09-29T07:28:24.860Z,18.00
2023-09-29T07:30:52.499Z,18.10
2023-09-29T07:33:20.776Z,18.20
2023-09-29T07:35:48.572Z,18.30
2023-09-29T07:38:19.207Z,18.30
2023-09-29T07:40:47.546Z,18.40
2023-09-29T07:43:15.347Z,18.40
2023-09-29T07:45:42.822Z,18.50
2023-09-29T07:48:10.614Z,18.60
2023-09-29T07:50:38.476Z,18.70
2023-09-29T07:53:06.282Z,18.80
2023-09-29T07:55:33.612Z,18.80
2023-09-29T07:58:01.854Z,19.00
2023-09-29T08:00:29.280Z,19.10
2023-09-29T08:02:57.095Z,19.20
2023-09-29T08:05:24.843Z,19.20
2023-09-29T08:07:52.978Z,19.40
2023-09-29T08:10:20.402Z,19.40
2023-09-29T08:12:48.147Z,19.50
2023-09-29T08:15:16.240Z,19.60
2023-09-29T08:17:45.445Z,19.70
2023-09-29T08:20:16.047Z,19.70
2023-09-29T08:22:44.765Z,19.80
2023-09-29T08:25:12.483Z,20.00
2023-09-29T08:27:40.553Z,20.10
2023-09-29T08:30:09.305Z,20.20
2023-09-29T08:32:45.074Z,20.20
2023-09-29T08:35:15.186Z,20.20
2023-09-29T08:37:44.542Z,20.30
2023-09-29T08:40:15.168Z,20.40
2023-09-29T08:42:50.557Z,20.50
2023-09-29T08:45:19.379Z,20.60
2023-09-29T08:47:54.341Z,20.60
2023-09-29T08:50:25.922Z,20.80
2023-09-29T08:52:55.278Z,20.80
2023-09-29T08:55:25.460Z,21.00
2023-09-29T08:57:56.062Z,21.10
2023-09-29T09:00:24.660Z,21.20
2023-09-29T09:02:52.638Z,21.20
2023-09-29T09:05:21.479Z,21.30
2023-09-29T09:07:49.433Z,21.40
2023-09-29T09:10:27.230Z,21.40
2023-09-29T09:13:01.278Z,21.40
2023-09-29T09:15:28.963Z,21.50
2023-09-29T09:17:58.636Z,21.60
2023-09-29T09:20:26.503Z,21.70
2023-09-29T09:22:58.657Z,21.80
2023-09-29T09:25:32.835Z,21.80
2023-09-29T09:28:00.656Z,21.80
2023-09-29T09:30:28.952Z,21.90
2023-09-29T09:32:56.799Z,21.90
2023-09-29T09:35:25.714Z,22.00
2023-09-29T09:37:53.639Z,22.20
2023-09-29T09:40:22.397Z,22.20
2023-09-29T09:42:50.808Z,22.30
2023-09-29T09:45:18.241Z,22.40
2023-09-29T09:47:47.937Z,22.40
2023-09-29T09:50:16.090Z,22.40
2023-09-29T09:52:51.995Z,22.50
2023-09-29T09:55:20.528Z,22.50
2023-09-29T09:57:51.408Z,22.60
2023-09-29T10:00:19.423Z,22.60
2023-09-29T10:02:54.649Z,22.70
2023-09-29T10:05:24.569Z,22.70
2023-09-29T10:08:02.898Z,22.70
2023-09-29T10:10:36.014Z,22.70
2023-09-29T10:13:07.726Z,22.90
2023-09-29T10:15:36.530Z,22.90
2023-09-29T10:18:19.105Z,22.90
2023-09-29T10:20:52.325Z,23.00
2023-09-29T10:23:20.452Z,23.10
2023-09-29T10:26:03.411Z,23.10
2023-09-29T10:28:35.278Z,23.10
2023-09-29T10:31:15.359Z,23.20
2023-09-29T10:33:51.952Z,23.30
2023-09-29T10:36:24.768Z,23.30
2023-09-29T10:38:54.937Z,23.30
2023-09-29T10:41:34.969Z,23.30
2023-09-29T10:44:05.558Z,23.40
2023-09-29T10:46:33.360Z,23.50
2023-09-29T10:49:02.362Z,23.50
2023-09-29T10:51:34.351Z,23.50
2023-09-29T10:54:04.471Z,23.50
2023-09-29T10:56:32.305Z,23.60
2023-09-29T10:59:01.111Z,23.60
2023-09-29T11:01:35.112Z,23.70
2023-09-29T11:04:05.446Z,23.70
2023-09-29T11:06:41.865Z,23.70
2023-09-29T11:09:15.112Z,23.80
2023-09-29T11:11:42.565Z,23.70
2023-09-29T11:14:10.464Z,23.80
2023-09-29T11:16:38.234Z,23.90
2023-09-29T11:19:17.118Z,23.90
2023-09-29T11:21:44.686Z,23.90
2023-09-29T11:24:20.417Z,23.90
2023-09-29T11:26:49.678Z,23.90
2023-09-29T11:29:22.755Z,23.90
2023-09-29T11:31:56.625Z,24.00
2023-09-29T11:34:25.081Z,24.00
2023-09-29T11:36:53.271Z,24.00
2023-09-29T11:39:22.385Z,24.00
2023-09-29T11:41:50.154Z,24.00
2023-09-29T11:44:21.073Z,24.00
2023-09-29T11:46:48.656Z,24.10
2023-09-29T11:49:16.433Z,24.10
2023-09-29T11:51:43.906Z,24.10
2023-09-29T11:54:11.717Z,24.10
2023-09-29T11:56:39.252Z,24.20
2023-09-29T11:59:07.001Z,24.20
2023-09-29T12:01:34.662Z,24.20
2023-09-29T12:04:02.900Z,24.20
2023-09-29T12:06:30.401Z,24.20
2023-09-29T12:08:58.455Z,24.20
2023-09-29T12:11:26.491Z,24.30
2023-09-29T12:13:54.323Z,24.30
2023-09-29T12:16:21.776Z,24.20
2023-09-29T12:18:49.524Z,24.30
2023-09-29T12:21:17.224Z,24.30
2023-09-29T12:23:45.117Z,24.40
2023-09-29T12:26:12.742Z,24.30
2023-09-29T12:28:40.685Z,24.40
2023-09-29T12:31:17.756Z,24.40
2023-09-29T12:33:46.887Z,24.40
2023-09-29T12:36:14.956Z,24.40
2023-09-29T12:38:44.609Z,24.40
2023-09-29T12:41:13.837Z,24.50
2023-09-29T12:43:42.488Z,24.50
2023-09-29T12:46:09.950Z,24.50
2023-09-29T12:48:37.647Z,24.60
2023-09-29T12:51:05.328Z,24.60
2023-09-29T12:53:33.312Z,24.70
2023-09-29T12:56:02.292Z,24.70
2023-09-29T12:58:30.204Z,24.70
2023-09-29T13:00:57.729Z,24.80
2023-09-29T13:03:25.768Z,24.80
2023-09-29T13:05:59.773Z,24.80
2023-09-29T13:08:28.586Z,24.90
2023-09-29T13:10:56.801Z,24.90
2023-09-29T13:13:24.997Z,24.90
2023-09-29T13:15:52.872Z,24.80
2023-09-29T13:18:20.892Z,24.80
2023-09-29T13:20:50.055Z,24.80
2023-09-29T13:23:18.703Z,24.80
2023-09-29T13:25:46.425Z,24.80
2023-09-29T13:28:14.469Z,24.80
2023-09-29T13:30:53.584Z,24.80
2023-09-29T13:33:28.118Z,24.80
2023-09-29T13:35:56.129Z,24.90
2023-09-29T13:38:24.411Z,24.90
2023-09-29T13:40:55.450Z,24.90
2023-09-29T13:43:23.466Z,24.90
2023-09-29T13:45:51.231Z,25.00
2023-09-29T13:48:23.847Z,25.00
2023-09-29T13:50:51.993Z,25.10
2023-09-29T13:53:19.869Z,25.20
2023-09-29T13:55:48.124Z,25.20
2023-09-29T13:58:15.898Z,25.20
2023-09-29T14:00:44.129Z,25.20
2023-09-29T14:03:12.486Z,25.20
2023-09-29T14:05:40.381Z,25.20
2023-09-29T14:08:08.774Z,25.30
2023-09-29T14:10:36.152Z,25.20
2023-09-29T14:13:04.361Z,25.30
2023-09-29T14:15:35.186Z,25.30
2023-09-29T14:18:03.386Z,25.20
2023-09-29T14:20:35.141Z,25.30
2023-09-29T14:23:04.358Z,25.30
2023-09-29T14:25:31.829Z,25.30
2023-09-29T14:27:59.622Z,25.20
2023-09-29T14:30:28.726Z,25.20
2023-09-29T14:32:57.173Z,25.20
2023-09-29T14:35:34.264Z,25.10
2023-09-29T14:38:11.076Z,25.00
2023-09-29T14:40:39.892Z,25.00
2023-09-29T14:43:07.634Z,25.00
2023-09-29T14:45:35.117Z,24.90
2023-09-29T14:48:05.574Z,24.90
2023-09-29T14:50:41.463Z,24.90
2023-09-29T14:53:09.403Z,24.90
2023-09-29T14:55:40.021Z,24.90
2023-09-29T14:58:08.717Z,24.90
2023-09-29T15:00:36.671Z,24.90
2023-09-29T15:03:06.786Z,24.90
2023-09-29T15:05:36.160Z,24.90
2023-09-29T15:08:04.707Z,24.80
2023-09-29T15:10:32.161Z,24.80
2023-09-29T15:13:02.621Z,24.70
2023-09-29T15:15:30.375Z,24.70
2023-09-29T15:17:58.272Z,24.70
2023-09-29T15:20:26.000Z,24.60
2023-09-29T15:22:54.096Z,24.50
2023-09-29T15:25:21.531Z,24.50
2023-09-29T15:27:49.565Z,24.40
2023-09-29T15:30:17.184Z,24.20
2023-09-29T15:32:44.994Z,24.10
2023-09-29T15:35:12.838Z,23.90
2023-09-29T15:37:40.664Z,23.80
2023-09-29T15:40:08.904Z,23.60
2023-09-29T15:42:36.638Z,23.50
2023-09-29T15:45:05.452Z,23.30
2023-09-29T15:47:33.192Z,23.20
2023-09-29T15:50:08.365Z,23.10
2023-09-29T15:52:39.556Z,22.90
2023-09-29T15:55:07.785Z,22.70
2023-09-29T15:57:35.671Z,22.60
2023-09-29T16:00:03.882Z,22.40
2023-09-29T16:02:37.885Z,22.30
2023-09-29T16:05:05.993Z,22.10
2023-09-29T16:07:33.725Z,21.90
2023-09-29T16:10:01.274Z,21.70
2023-09-29T16:12:29.420Z,21.50
2023-09-29T16:14:57.040Z,21.40
2023-09-29T16:17:24.991Z,21.20
2023-09-29T16:19:52.650Z,21.00
2023-09-29T16:22:20.622Z,20.80
2023-09-29T16:24:48.390Z,20.70
2023-09-29T16:27:16.462Z,20.50
2023-09-29T16:29:43.882Z,20.40
2023-09-29T16:32:29.241Z,20.20
2023-09-29T16:35:01.187Z,20.10
2023-09-29T16:37:28.935Z,20.00
2023-09-29T16:39:57.103Z,19.80
2023-09-29T16:42:25.248Z,19.80
2023-09-29T16:44:52.706Z,19.70
2023-09-29T16:47:20.496Z,19.60
2023-09-29T16:49:52.029Z,19.50
2023-09-29T16:52:20.242Z,19.40
2023-09-29T16:54:47.816Z,19.30
2023-09-29T16:57:16.069Z,19.30
2023-09-29T16:59:43.968Z,19.20
2023-09-29T17:02:11.712Z,19.10
2023-09-29T17:04:39.137Z,19.10
2023-09-29T17:07:06.950Z,19.00
2023-09-29T17:09:34.395Z,19.00
2023-09-29T17:12:02.956Z,18.90
2023-09-29T17:14:30.554Z,18.90
2023-09-29T17:16:58.398Z,18.80
2023-09-29T17:19:26.165Z,18.80
2023-09-29T17:21:53.882Z,18.70
2023-09-29T17:24:21.488Z,18.70
2023-09-29T17:26:49.646Z,18.60
2023-09-29T17:29:17.298Z,18.60
2023-09-29T17:31:45.374Z,18.50
2023-09-29T17:34:13.033Z,18.50
2023-09-29T17:36:41.002Z,18.50
2023-09-29T17:39:08.838Z,18.40
2023-09-29T17:41:36.841Z,18.40
2023-09-29T17:44:04.385Z,18.40
2023-09-29T17:46:32.181Z,18.30
2023-09-29T17:48:59.932Z,18.30
2023-09-29T17:51:28.156Z,18.30
2023-09-29T17:53:55.729Z,18.30
2023-09-29T17:56:23.452Z,18.30
2023-09-29T17:58:50.839Z,18.30
2023-09-29T18:01:19.851Z,18.20
2023-09-29T18:03:48.053Z,18.20
2023-09-29T18:06:15.959Z,18.20
2023-09-29T18:08:43.903Z,18.20
2023-09-29T18:11:16.567Z,18.20
2023-09-29T18:13:43.999Z,18.10
2023-09-29T18:16:12.114Z,18.10
2023-09-29T18:18:40.241Z,18.10
2023-09-29T18:21:08.045Z,18.00
2023-09-29T18:23:35.574Z,18.00
2023-09-29T18:26:03.772Z,18.00
2023-09-29T18:28:32.729Z,18.00
2023-09-29T18:31:00.858Z,18.00
2023-09-29T18:33:31.503Z,18.00
2023-09-29T18:36:02.082Z,17.90
2023-09-29T18:38:30.336Z,17.90
2023-09-29T18:40:58.487Z,17.90
2023-09-29T18:43:25.984Z,17.80
2023-09-29T18:46:01.010Z,17.80
2023-09-29T18:48:29.777Z,17.80
2023-09-29T18:51:03.289Z,17.80
2023-09-29T18:53:31.789Z,17.80
2023-09-29T18:55:59.561Z,17.80
2023-09-29T18:58:28.059Z,17.70
2023-09-29T19:00:56.538Z,17.70
2023-09-29T19:03:24.295Z,17.70
2023-09-29T19:05:52.785Z,17.70
2023-09-29T19:08:20.387Z,17.60
2023-09-29T19:10:48.055Z,17.60
2023-09-29T19:13:16.187Z,17.60
2023-09-29T19:15:44.154Z,17.60
2023-09-29T19:18:12.740Z,17.60
2023-09-29T19:20:40.758Z,17.50
2023-09-29T19:23:08.215Z,17.50
2023-09-29T19:25:36.356Z,17.50
2023-09-29T19:28:04.812Z,17.50
2023-09-29T19:30:33.599Z,17.50
2023-09-29T19:33:01.201Z,17.40
2023-09-29T19:35:29.136Z,17.40
2023-09-29T19:37:56.672Z,17.40
2023-09-29T19:40:24.598Z,17.30
2023-09-29T19:42:52.151Z,17.30
2023-09-29T19:45:19.956Z,17.40
2023-09-29T19:47:47.585Z,17.30
2023-09-29T19:50:15.529Z,17.30
2023-09-29T19:52:42.927Z,17.20
2023-09-29T19:55:16.757Z,17.20
2023-09-29T19:57:48.476Z,17.20
2023-09-29T20:00:16.541Z,17.10
2023-09-29T20:02:44.016Z,17.10
2023-09-29T20:05:14.140Z,17.00
2023-09-29T20:07:41.762Z,17.00
2023-09-29T20:10:12.726Z,17.00
2023-09-29T20:12:40.687Z,17.00
2023-09-29T20:15:09.116Z,16.90
2023-09-29T20:17:36.998Z,16.90
2023-09-29T20:20:05.441Z,16.90
2023-09-29T20:22:33.218Z,16.80
2023-09-29T20:25:02.123Z,16.80
2023-09-29T20:27:29.596Z,16.80
2023-09-29T20:29:57.390Z,16.80
2023-09-29T20:32:25.067Z,16.70
2023-09-29T20:34:52.928Z,16.70
2023-09-29T20:37:21.648Z,16.60
2023-09-29T20:39:49.704Z,16.60
2023-09-29T20:42:17.507Z,16.60
2023-09-29T20:44:46.970Z,16.60
2023-09-29T20:47:14.484Z,16.60
2023-09-29T20:49:42.342Z,16.60
2023-09-29T20:52:09.890Z,16.60
2023-09-29T20:54:37.909Z,16.60
2023-09-29T20:57:05.986Z,16.60
2023-09-29T20:59:33.633Z,16.60
2023-09-29T21:02:01.360Z,16.60
2023-09-29T21:04:29.939Z,16.50
2023-09-29T21:06:57.380Z,16.60
2023-09-29T21:09:25.199Z,16.60
2023-09-29T21:11:52.732Z,16.60
2023-09-29T21:14:20.637Z,16.60
2023-09-29T21:16:48.089Z,16.60
2023-09-29T21:19:16.065Z,16.60
2023-09-29T21:21:43.986Z,16.60
2023-09-29T21:24:12.179Z,16.60
2023-09-29T21:26:39.649Z,16.70
2023-09-29T21:29:07.723Z,16.70
2023-09-29T21:31:40.998Z,16.70
2023-09-29T21:34:09.146Z,16.70
2023-09-29T21:36:36.696Z,16.80
2023-09-29T21:39:04.701Z,16.70
2023-09-29T21:41:32.336Z,16.80
2023-09-29T21:44:00.228Z,16.80
2023-09-29T21:46:27.729Z,16.90
2023-09-29T21:48:57.039Z,16.90
2023-09-29T21:51:24.505Z,16.90
2023-09-29T21:53:52.171Z,16.90
2023-09-29T21:56:19.609Z,16.90
2023-09-29T21:58:47.344Z,16.90
2023-09-29T22:01:19.959Z,17.00
2023-09-29T22:03:48.036Z,17.00
2023-09-29T22:06:15.767Z,17.00
2023-09-29T22:08:43.847Z,17.10
2023-09-29T22:11:11.302Z,17.10
2023-09-29T22:13:39.314Z,17.10
2023-09-29T22:16:08.927Z,17.10
2023-09-29T22:18:38.158Z,17.10
2023-09-29T22:21:05.704Z,17.20
2023-09-29T22:23:33.946Z,17.20
2023-09-29T22:26:01.608Z,17.20
2023-09-29T22:28:29.419Z,17.20
2023-09-29T22:30:56.887Z,17.20
2023-09-29T22:33:25.370Z,17.20
2023-09-29T22:35:52.960Z,17.20
2023-09-29T22:38:20.800Z,17.20
2023-09-29T22:40:48.226Z,17.20
2023-09-29T22:43:16.018Z,17.20
2023-09-29T22:45:43.688Z,17.20
2023-09-29T22:48:11.608Z,17.20
2023-09-29T22:50:40.327Z,17.20
2023-09-29T22:53:08.123Z,17.20
2023-09-29T22:55:35.660Z,17.20
2023-09-29T22:58:03.501Z,17.20
2023-09-29T23:00:31.203Z,17.30
2023-09-29T23:02:59.136Z,17.20
2023-09-29T23:05:26.670Z,17.30
2023-09-29T23:07:54.590Z,17.30
2023-09-29T23:10:21.998Z,17.30
2023-09-29T23:12:50.347Z,17.30
2023-09-29T23:15:18.072Z,17.30
2023-09-29T23:17:45.912Z,17.30
2023-09-29T23:20:13.384Z,17.30
2023-09-29T23:22:41.191Z,17.30
2023-09-29T23:25:09.215Z,17.30
2023-09-29T23:27:37.329Z,17.30
2023-09-29T23:30:05.764Z,17.30
2023-09-29T23:32:34.027Z,17.30
2023-09-29T23:35:02.237Z,17.30
2023-09-29T23:37:31.346Z,17.30
2023-09-29T23:39:59.113Z,17.30
2023-09-29T23:42:27.248Z,17.40
2023-09-29T23:44:54.735Z,17.40
2023-09-29T23:47:22.764Z,17.30
2023-09-29T23:49:50.208Z,17.30
2023-09-29T23:52:18.012Z,17.30
2023-09-29T23:54:45.489Z,17.30
2023-09-29T23:57:13.847Z,17.30
2023-09-29T23:59:42.837Z,17.30
